Time;durP1;ratioP1;P1;durP2;ratioP2;P2;SDS_P1;SDS_P2;PMS_P1;PMS_P2;Temp;Humidity;BMP_temperature;BMP_pressure;BME280_temperature;BME280_humidity;BME280_pressure;Samples;Min_cycle;Max_cycle;Signal;HPM_P1;HPM_P2
2021/07/29 00:01:28;;;;;;;23.20;15.88;;;;;;;20.17;94.97;98966.73;1793045;79;21452;-70
2021/07/29 00:03:58;;;;;;;36.08;16.40;;;;;;;20.12;95.29;98968.52;1774504;80;21388;-71
2021/07/29 00:06:26;;;;;;;36.75;16.27;;;;;;;20.13;95.74;98976.28;1774336;80;22266;-69
2021/07/29 00:08:54;;;;;;;28.45;16.17;;;;;;;20.13;95.67;98970.11;1794475;79;20967;-69
2021/07/29 00:11:30;;;;;;;29.40;15.30;;;;;;;20.10;95.40;98977.86;1794649;79;22318;-69
2021/07/29 00:14:03;;;;;;;30.00;14.65;;;;;;;20.07;95.75;98985.62;1794287;79;20944;-71
2021/07/29 00:16:42;;;;;;;30.85;15.05;;;;;;;20.07;96.38;98985.62;1792163;79;20884;-69
2021/07/29 00:19:05;;;;;;;64.65;16.95;;;;;;;20.11;97.07;98985.03;1793157;79;20994;-69
2021/07/29 00:21:33;;;;;;;34.53;16.00;;;;;;;20.16;97.47;98988.03;1794672;79;21245;-69
2021/07/29 00:24:03;;;;;;;34.33;15.88;;;;;;;20.23;98.02;98986.63;1794336;80;21133;-70
2021/07/29 00:26:32;;;;;;;31.05;15.43;;;;;;;20.30;98.10;98992.23;1789709;80;20880;-71
2021/07/29 00:29:00;;;;;;;27.05;15.40;;;;;;;20.35;97.64;98996.83;1794114;79;20873;-71
2021/07/29 00:31:36;;;;;;;26.87;14.60;;;;;;;20.37;97.55;99006.98;1794604;80;20999;-70
2021/07/29 00:34:09;;;;;;;20.00;12.50;;;;;;;20.44;97.35;99009.02;1793843;79;21002;-70
2021/07/29 00:36:41;;;;;;;23.77;12.18;;;;;;;20.55;96.61;99002.08;1794481;80;21170;-70
2021/07/29 00:39:09;;;;;;;22.27;12.33;;;;;;;20.65;95.99;99009.67;1794064;79;21456;-70
2021/07/29 00:41:35;;;;;;;18.17;11.75;;;;;;;20.76;95.27;99005.70;1794515;80;20964;-71
2021/07/29 00:44:07;;;;;;;19.77;11.85;;;;;;;20.86;94.72;99001.30;1794227;80;20999;-70
2021/07/29 00:46:39;;;;;;;23.92;13.58;;;;;;;20.95;94.44;98993.33;1794454;79;26822;-70
2021/07/29 00:49:11;;;;;;;20.00;12.03;;;;;;;21.03;95.63;98982.38;1794217;80;21764;-68
2021/07/29 00:51:42;;;;;;;22.40;12.93;;;;;;;21.07;97.13;98985.16;1794633;80;20837;-67
2021/07/29 00:54:08;;;;;;;16.80;12.03;;;;;;;21.06;98.07;98984.36;1794037;80;21537;-67
2021/07/29 00:56:40;;;;;;;18.52;12.75;;;;;;;21.04;98.75;98983.97;1794604;80;20952;-67
2021/07/29 00:59:14;;;;;;;20.70;12.78;;;;;;;21.02;98.76;98987.75;1794466;79;26931;-67
2021/07/29 01:01:56;;;;;;;15.23;11.45;;;;;;;21.02;98.49;98992.53;1772526;80;20908;-67
2021/07/29 01:04:23;;;;;;;18.73;12.90;;;;;;;20.99;98.57;98981.58;1791303;79;20972;-67
2021/07/29 01:06:56;;;;;;;18.80;12.95;;;;;;;20.94;98.89;98997.31;1771831;80;21011;-67
2021/07/29 01:09:26;;;;;;;19.75;13.03;;;;;;;20.90;99.40;99010.47;1789894;80;21024;-67
2021/07/29 01:11:55;;;;;;;16.48;11.88;;;;;;;20.87;99.92;99011.27;1790887;80;21016;-67
2021/07/29 01:14:36;;;;;;;15.50;11.63;;;;;;;20.84;100.00;99007.08;1771551;80;21647;-67
2021/07/29 01:16:57;;;;;;;14.90;10.60;;;;;;;20.83;100.00;99013.25;1787632;79;20969;-68
2021/07/29 01:19:28;;;;;;;16.97;10.13;;;;;;;20.85;100.00;99017.84;1791024;79;21011;-67
2021/07/29 01:22:00;;;;;;;13.30;9.50;;;;;;;20.88;99.63;99022.62;1791550;79;20964;-67
2021/07/29 01:24:30;;;;;;;13.28;8.88;;;;;;;20.88;99.44;99014.84;1741799;81;20924;-67
2021/07/29 01:26:56;;;;;;;11.65;8.05;;;;;;;20.88;99.15;99007.88;1741957;82;21134;-69
2021/07/29 01:29:28;;;;;;;18.55;8.38;;;;;;;20.85;99.29;98980.17;1741836;81;20885;-70
2021/07/29 01:32:07;;;;;;;15.45;8.73;;;;;;;20.84;99.04;98952.68;1730031;82;21280;-70
2021/07/29 01:34:41;;;;;;;11.93;8.95;;;;;;;20.81;99.73;98938.93;1739278;81;20968;-67
2021/07/29 01:37:07;;;;;;;16.77;8.95;;;;;;;20.74;100.00;98930.00;1741505;81;20984;-67
2021/07/29 01:39:39;;;;;;;15.08;8.38;;;;;;;20.70;100.00;98940.35;1742129;81;21139;-67
2021/07/29 01:42:09;;;;;;;13.45;8.58;;;;;;;20.70;100.00;98939.55;1741699;81;21019;-67
2021/07/29 01:44:42;;;;;;;11.35;7.80;;;;;;;20.61;100.00;98939.16;1730196;82;21539;-68
2021/07/29 01:47:11;;;;;;;15.60;8.53;;;;;;;20.52;100.00;98931.17;1741938;82;20976;-67
2021/07/29 01:49:43;;;;;;;17.67;8.38;;;;;;;20.46;100.00;98929.97;1741860;82;21515;-67
2021/07/29 01:52:14;;;;;;;19.52;9.40;;;;;;;20.47;100.00;98930.77;1741837;81;21033;-67
2021/07/29 01:54:42;;;;;;;14.28;9.23;;;;;;;20.50;100.00;98931.38;1741714;82;21530;-67
2021/07/29 01:57:15;;;;;;;27.32;9.75;;;;;;;20.53;100.00;98931.97;1742143;82;20893;-67
2021/07/29 01:59:42;;;;;;;18.02;9.30;;;;;;;20.56;100.00;98927.00;1741962;82;20963;-70
2021/07/29 02:02:13;;;;;;;19.32;9.68;;;;;;;20.56;100.00;98925.00;1741756;81;21492;-70
2021/07/29 02:04:42;;;;;;;19.90;10.53;;;;;;;20.53;100.00;98926.39;1741729;81;21612;-70
2021/07/29 02:07:14;;;;;;;15.08;9.45;;;;;;;20.47;100.00;98924.59;1758275;80;20909;-70
2021/07/29 02:09:45;;;;;;;13.05;9.68;;;;;;;20.48;100.00;98922.61;1791543;79;20957;-70
2021/07/29 02:12:12;;;;;;;16.50;8.93;;;;;;;20.48;100.00;98915.64;1791423;79;20955;-69
2021/07/29 02:14:47;;;;;;;11.43;8.90;;;;;;;20.49;100.00;98914.44;1771920;80;20964;-70
2021/07/29 02:17:21;;;;;;;11.75;9.38;;;;;;;20.49;100.00;98909.66;1791584;79;21125;-70
2021/07/29 02:19:53;;;;;;;15.70;9.33;;;;;;;20.52;100.00;98908.08;1771917;80;21011;-70
2021/07/29 02:22:20;;;;;;;12.58;10.10;;;;;;;20.54;100.00;98909.87;1791088;79;20968;-67
2021/07/29 02:24:53;;;;;;;12.68;9.28;;;;;;;20.54;100.00;98905.09;1791228;79;20928;-67
2021/07/29 02:27:24;;;;;;;12.85;9.73;;;;;;;20.56;100.00;98902.70;1791277;80;21050;-67
2021/07/29 02:29:57;;;;;;;12.70;9.23;;;;;;;20.54;100.00;98902.30;1790906;79;21483;-68
2021/07/29 02:32:24;;;;;;;;;;;;;;;20.51;100.00;98905.09;1793941;79;20940;-67
2021/07/29 02:34:52;;;;;;;16.30;9.60;;;;;;;20.47;100.00;98898.71;1791290;79;20203;-67
2021/07/29 02:37:23;;;;;;;14.15;9.25;;;;;;;20.43;100.00;98903.69;1771675;80;20948;-67
2021/07/29 02:39:52;;;;;;;17.35;9.08;;;;;;;20.40;100.00;98903.09;1791197;80;20959;-67
2021/07/29 02:42:23;;;;;;;11.95;9.13;;;;;;;20.41;100.00;98903.88;1791365;80;21183;-67
2021/07/29 02:44:56;;;;;;;15.50;8.73;;;;;;;20.40;100.00;98896.11;1791431;80;21090;-67
2021/07/29 02:47:24;;;;;;;12.80;9.10;;;;;;;20.40;100.00;98898.91;1791933;80;20956;-68
2021/07/29 02:49:51;;;;;;;14.80;9.55;;;;;;;20.37;100.00;98892.70;1790916;79;20869;-68
2021/07/29 02:52:24;;;;;;;16.93;9.78;;;;;;;20.32;100.00;98888.91;1791364;80;20913;-68
2021/07/29 02:54:55;;;;;;;15.20;9.15;;;;;;;20.30;100.00;98887.71;1768994;80;25309;-68
2021/07/29 02:57:28;;;;;;;9.70;8.13;;;;;;;20.27;100.00;98880.94;1771478;80;21036;-68
2021/07/29 02:59:56;;;;;;;13.83;9.53;;;;;;;20.26;100.00;98883.53;1767559;80;20964;-68
2021/07/29 03:02:30;;;;;;;15.28;8.93;;;;;;;20.26;100.00;98883.53;1793182;79;22235;-68
2021/07/29 03:05:02;;;;;;;11.40;9.18;;;;;;;20.25;100.00;98887.51;1794407;80;21475;-68
2021/07/29 03:07:33;;;;;;;13.00;9.23;;;;;;;20.21;100.00;98881.16;1794146;79;21001;-68
2021/07/29 03:10:01;;;;;;;13.13;9.00;;;;;;;20.19;100.00;98879.96;1794120;79;20968;-68
2021/07/29 03:12:34;;;;;;;10.78;9.68;;;;;;;20.16;100.00;98874.58;1794297;79;21425;-68
2021/07/29 03:15:04;;;;;;;9.37;8.37;;;;;;;20.15;100.00;98867.42;1794402;79;20889;-68
2021/07/29 03:17:34;;;;;;;16.23;10.88;;;;;;;20.17;100.00;98872.00;1766087;79;21471;-68
2021/07/29 03:20:10;;;;;;;19.70;10.40;;;;;;;20.19;100.00;98867.42;1793954;79;21129;-68
2021/07/29 03:22:45;;;;;;;19.73;11.08;;;;;;;20.21;100.00;98865.03;1765982;79;20880;-67
2021/07/29 03:25:22;;;;;;;18.67;10.83;;;;;;;20.22;100.00;98864.61;1794130;79;22237;-68
2021/07/29 03:27:51;;;;;;;18.77;10.88;;;;;;;20.23;100.00;98857.84;1794161;79;20940;-68
2021/07/29 03:30:26;;;;;;;19.02;11.45;;;;;;;20.26;100.00;98857.64;1749457;81;20909;-68
2021/07/29 03:32:56;;;;;;;22.32;11.83;;;;;;;20.31;100.00;98865.62;1762152;81;21131;-68
2021/07/29 03:35:26;;;;;;;20.62;11.48;;;;;;;20.37;100.00;98867.61;1778951;79;21550;-67
2021/07/29 03:37:55;;;;;;;19.98;12.05;;;;;;;20.44;100.00;98868.24;1751720;79;20892;-68
2021/07/29 03:40:28;;;;;;;21.93;12.55;;;;;;;20.52;100.00;98872.63;1794012;79;21459;-67
2021/07/29 03:42:59;;;;;;;17.52;11.43;;;;;;;20.59;100.00;98873.22;1777470;79;21493;-68
2021/07/29 03:45:36;;;;;;;22.22;13.38;;;;;;;20.67;100.00;98877.61;1766842;81;21134;-68
2021/07/29 03:48:07;;;;;;;17.02;11.80;;;;;;;20.73;100.00;98871.23;1766569;81;20961;-68
2021/07/29 03:50:38;;;;;;;20.35;11.20;;;;;;;20.82;100.00;98868.59;1745253;81;20920;-68
2021/07/29 03:53:12;;;;;;;18.35;10.85;;;;;;;20.91;100.00;98871.17;1766790;81;20884;-68
2021/07/29 03:55:41;;;;;;;;;;;;;;;20.99;100.00;98871.36;1748012;79;20877;-68
2021/07/29 03:58:12;;;;;;;16.17;10.07;;;;;;;21.07;100.00;98877.12;1766153;81;20112;-69
2021/07/29 04:00:43;;;;;;;12.68;10.35;;;;;;;21.16;100.00;98881.50;1766639;81;21327;-69
2021/07/29 04:03:15;;;;;;;14.55;10.40;;;;;;;21.24;100.00;98878.91;1766726;80;20929;-69
2021/07/29 04:05:46;;;;;;;16.67;11.20;;;;;;;21.35;100.00;98882.47;1765556;78;20996;-69
2021/07/29 04:08:20;;;;;;;16.75;11.00;;;;;;;21.45;100.00;98882.21;1743169;81;20940;-69
2021/07/29 04:10:53;;;;;;;13.62;11.05;;;;;;;21.54;100.00;98886.77;1711515;82;20893;-70
2021/07/29 04:13:26;;;;;;;14.65;11.20;;;;;;;21.65;100.00;98891.11;1685323;84;20933;-68
2021/07/29 04:16:04;;;;;;;17.20;9.90;;;;;;;21.78;100.00;98885.06;1700894;84;20944;-69
2021/07/29 04:18:37;;;;;;;13.40;10.23;;;;;;;21.90;100.00;98883.21;1762590;80;21090;-69
2021/07/29 04:21:03;;;;;;;14.95;11.00;;;;;;;22.04;100.00;98886.72;1762772;81;21490;-69
2021/07/29 04:23:35;;;;;;;14.68;10.85;;;;;;;22.21;100.00;98893.41;1765131;80;21079;-69
2021/07/29 04:26:13;;;;;;;18.77;11.68;;;;;;;22.39;100.00;98894.69;1743391;81;20935;-68
2021/07/29 04:28:44;;;;;;;16.95;12.95;;;;;;;22.56;100.00;98894.33;1762697;80;21031;-69
2021/07/29 04:31:18;;;;;;;19.98;13.58;;;;;;;22.65;100.00;98891.26;1762779;81;20979;-68
2021/07/29 04:33:49;;;;;;;23.40;14.70;;;;;;;22.63;100.00;98902.67;1762758;80;20885;-70
2021/07/29 04:36:20;;;;;;;19.57;12.88;;;;;;;22.59;100.00;98901.30;1762361;80;21155;-69
2021/07/29 04:38:46;;;;;;;19.17;12.45;;;;;;;22.55;100.00;98904.73;1790203;80;21519;-69
2021/07/29 04:41:15;;;;;;;18.55;12.98;;;;;;;22.55;100.00;98898.34;1794240;79;20995;-71
2021/07/29 04:43:45;;;;;;;16.32;11.35;;;;;;;22.57;100.00;98893.92;1779885;79;21969;-69
2021/07/29 04:46:15;;;;;;;16.10;11.40;;;;;;;22.63;99.99;98885.88;1763488;80;20940;-70
2021/07/29 04:48:49;;;;;;;13.18;10.93;;;;;;;22.67;98.78;98879.66;1786108;79;21495;-70
2021/07/29 04:51:22;;;;;;;16.48;12.05;;;;;;;22.71;97.96;98880.42;1769971;80;20868;-70
2021/07/29 04:53:48;;;;;;;16.67;11.48;;;;;;;22.77;97.04;98878.77;1779398;80;20842;-69
2021/07/29 04:56:26;;;;;;;15.30;11.18;;;;;;;22.83;95.93;98882.74;1779511;80;21298;-69
2021/07/29 04:58:56;;;;;;;14.40;11.05;;;;;;;22.91;95.56;98887.06;1777152;80;21534;-68
2021/07/29 05:01:32;;;;;;;20.05;11.33;;;;;;;23.00;95.12;98891.58;1788252;79;21094;-71
2021/07/29 05:04:04;;;;;;;13.65;10.43;;;;;;;23.05;94.36;98900.92;1782509;79;20885;-71
2021/07/29 05:06:35;;;;;;;13.93;11.05;;;;;;;23.05;94.00;98882.73;1739806;81;21506;-71
2021/07/29 05:09:11;;;;;;;17.87;9.97;;;;;;;23.05;93.15;98884.12;1740116;81;21052;-71
2021/07/29 05:11:41;;;;;;;19.10;11.53;;;;;;;23.06;93.00;98882.13;1759989;81;21012;-72
2021/07/29 05:14:07;;;;;;;19.45;11.63;;;;;;;23.06;92.18;98879.33;1759435;81;21148;-73
2021/07/29 05:16:43;;;;;;;12.58;11.15;;;;;;;23.10;92.67;98882.09;1764446;80;21514;-72
2021/07/29 05:19:16;;;;;;;14.83;10.45;;;;;;;23.15;92.73;98881.61;1777128;79;20972;-72
2021/07/29 05:21:44;;;;;;;16.52;11.28;;;;;;;23.19;92.53;98877.56;1740936;81;20928;-72
2021/07/29 05:24:23;;;;;;;17.30;11.55;;;;;;;23.28;92.15;98879.86;1759593;80;21075;-74
2021/07/29 05:26:53;;;;;;;17.12;11.97;;;;;;;23.35;90.27;98882.59;1760182;80;21127;-72
2021/07/29 05:29:28;;;;;;;21.40;11.83;;;;;;;23.38;88.96;98879.75;1760368;80;21571;-70
2021/07/29 05:32:01;;;;;;;14.55;10.30;;;;;;;23.42;89.41;98873.31;1760418;80;20960;-71
2021/07/29 05:34:32;;;;;;;16.87;10.32;;;;;;;23.45;86.25;98869.06;1760672;81;20853;-71
2021/07/29 05:37:03;;;;;;;15.25;11.18;;;;;;;23.45;86.68;98858.47;1760681;81;22295;-71
2021/07/29 05:39:34;;;;;;;13.62;10.60;;;;;;;23.50;87.22;98863.00;1765507;80;21107;-71
2021/07/29 05:42:06;;;;;;;14.38;10.43;;;;;;;23.62;87.00;98870.09;1743427;81;20912;-71
2021/07/29 05:44:36;;;;;;;15.95;10.40;;;;;;;23.75;87.29;98867.50;1759858;81;20990;-72
2021/07/29 05:47:09;;;;;;;14.60;10.13;;;;;;;23.87;86.45;98865.53;1770233;80;21004;-71
2021/07/29 05:49:39;;;;;;;17.17;11.00;;;;;;;23.97;84.35;98868.80;1782941;80;20917;-72
2021/07/29 05:52:12;;;;;;;14.45;10.53;;;;;;;24.05;83.92;98860.48;1759890;81;21132;-71
2021/07/29 05:54:41;;;;;;;17.20;11.05;;;;;;;24.10;83.80;98862.80;1760405;80;20905;-72
2021/07/29 05:57:09;;;;;;;16.40;10.15;;;;;;;24.17;82.57;98862.70;1771142;80;20921;-73
2021/07/29 05:59:41;;;;;;;20.82;10.58;;;;;;;24.27;82.08;98866.56;1791595;79;20940;-73
2021/07/29 06:02:15;;;;;;;20.05;10.45;;;;;;;24.32;81.05;98868.28;1792527;79;21047;-72
2021/07/29 06:04:45;;;;;;;13.62;9.75;;;;;;;24.41;80.80;98866.95;1784254;79;20975;-71
2021/07/29 06:07:12;;;;;;;13.22;9.15;;;;;;;24.49;79.81;98865.63;1763272;81;20947;-72
2021/07/29 06:09:43;;;;;;;14.95;9.63;;;;;;;24.57;78.89;98865.08;1735481;81;20861;-72
2021/07/29 06:12:11;;;;;;;16.90;10.20;;;;;;;24.65;79.16;98871.36;1762707;81;20920;-71
2021/07/29 06:14:38;;;;;;;16.82;9.73;;;;;;;24.72;77.87;98865.63;1762792;81;21047;-71
2021/07/29 06:17:11;;;;;;;16.85;9.48;;;;;;;24.82;77.72;98873.08;1711622;82;21124;-72
2021/07/29 06:19:42;;;;;;;19.98;9.83;;;;;;;24.91;76.21;98863.46;1707669;82;21451;-72
2021/07/29 06:22:10;;;;;;;17.30;9.23;;;;;;;25.01;76.13;98869.52;1771583;80;20931;-72
2021/07/29 06:24:38;;;;;;;20.75;8.83;;;;;;;25.13;75.75;98867.31;1771927;80;20900;-72
2021/07/29 06:27:04;;;;;;;18.32;9.85;;;;;;;25.22;74.38;98859.12;1781503;79;20988;-73
2021/07/29 06:29:30;;;;;;;18.17;9.48;;;;;;;25.29;74.33;98861.78;1728291;80;21126;-73
2021/07/29 06:31:57;;;;;;;12.50;8.78;;;;;;;25.37;73.97;98860.42;1712049;82;21003;-72
2021/07/29 06:34:24;;;;;;;23.55;9.88;;;;;;;25.46;73.12;98854.99;1711875;83;21012;-73
2021/07/29 06:36:51;;;;;;;15.00;9.63;;;;;;;25.50;73.85;98861.33;1702306;83;21490;-73
2021/07/29 06:39:18;;;;;;;17.42;9.05;;;;;;;25.57;72.65;98866.02;1732045;82;21036;-72
2021/07/29 06:41:45;;;;;;;14.15;8.38;;;;;;;25.65;72.64;98859.84;1740890;81;21810;-73
2021/07/29 06:44:11;;;;;;;17.90;9.00;;;;;;;25.73;71.08;98862.50;1740522;82;21467;-72
2021/07/29 06:46:38;;;;;;;17.85;8.18;;;;;;;25.77;71.12;98856.98;1740948;82;22401;-72
2021/07/29 06:49:05;;;;;;;22.13;8.63;;;;;;;25.90;72.33;98854.30;1762701;80;21035;-72
2021/07/29 06:51:35;;;;;;;17.07;7.80;;;;;;;26.04;72.49;98855.36;1768633;81;20937;-72
2021/07/29 06:54:07;;;;;;;18.98;8.25;;;;;;;26.13;69.86;98863.98;1768737;81;21532;-73
2021/07/29 06:56:32;;;;;;;11.70;7.40;;;;;;;26.21;70.28;98862.59;1768113;80;20977;-73
2021/07/29 06:58:59;;;;;;;14.00;7.97;;;;;;;26.31;69.68;98865.80;1733620;80;21106;-73
2021/07/29 07:01:25;;;;;;;13.72;7.45;;;;;;;26.43;67.78;98870.56;1725531;81;21476;-73
2021/07/29 07:03:53;;;;;;;12.90;7.17;;;;;;;26.46;67.24;98875.31;1717742;82;20980;-74
2021/07/29 07:06:19;;;;;;;16.73;7.95;;;;;;;26.51;68.00;98877.60;1730136;83;21180;-74
2021/07/29 07:08:45;;;;;;;15.63;7.42;;;;;;;26.59;66.73;98888.83;1730216;83;20936;-74
2021/07/29 07:11:16;;;;;;;19.85;7.28;;;;;;;26.67;67.18;98885.23;1723235;82;21060;-74
2021/07/29 07:13:46;;;;;;;14.03;5.95;;;;;;;26.72;67.44;98874.23;1713781;83;20981;-76
2021/07/29 07:16:13;;;;;;;19.07;7.37;;;;;;;26.76;65.81;98869.30;1700774;84;21517;-73
2021/07/29 07:18:40;;;;;;;11.50;6.65;;;;;;;26.77;65.36;98867.28;1700891;83;21485;-74
2021/07/29 07:21:09;;;;;;;13.83;6.53;;;;;;;26.83;65.51;98853.63;1700880;83;20912;-73
2021/07/29 07:23:36;;;;;;;15.53;6.42;;;;;;;26.91;64.87;98855.03;1701100;84;20956;-74
2021/07/29 07:26:02;;;;;;;15.80;6.37;;;;;;;27.00;64.55;98853.02;1700696;84;21067;-73
2021/07/29 07:28:29;;;;;;;14.63;6.90;;;;;;;27.07;64.97;98854.86;1700892;84;21076;-74
2021/07/29 07:30:55;;;;;;;14.70;6.58;;;;;;;27.11;63.92;98856.34;1701120;84;21019;-73
2021/07/29 07:33:21;;;;;;;17.80;6.58;;;;;;;27.18;63.98;98847.67;1701077;83;21589;-73
2021/07/29 07:35:49;;;;;;;13.35;6.83;;;;;;;27.25;63.29;98844.66;1700920;83;22194;-76
2021/07/29 07:38:16;;;;;;;15.25;6.90;;;;;;;27.32;63.54;98833.80;1709630;82;21054;-74
2021/07/29 07:40:42;;;;;;;14.70;6.45;;;;;;;27.38;63.48;98843.91;1726987;82;21052;-73
2021/07/29 07:43:09;;;;;;;18.10;6.40;;;;;;;27.44;62.19;98841.51;1730431;83;21053;-76
2021/07/29 07:45:37;;;;;;;12.70;5.92;;;;;;;27.52;60.38;98844.30;1730238;83;20934;-74
2021/07/29 07:48:06;;;;;;;15.85;6.50;;;;;;;27.61;60.49;98838.82;1730116;83;21036;-74
2021/07/29 07:50:33;;;;;;;10.25;6.00;;;;;;;27.73;60.47;98836.48;1729942;82;21016;-73
2021/07/29 07:53:05;;;;;;;11.95;5.75;;;;;;;27.79;59.92;98832.63;1730555;82;21495;-74
2021/07/29 07:55:31;;;;;;;15.53;6.30;;;;;;;27.88;60.96;98823.49;1730309;83;21677;-75
2021/07/29 07:57:58;;;;;;;13.03;6.10;;;;;;;28.02;59.20;98824.47;1718182;83;21480;-73
2021/07/29 08:00:24;;;;;;;13.98;6.03;;;;;;;28.13;57.69;98830.56;1702791;83;21048;-74
2021/07/29 08:02:51;;;;;;;18.30;5.85;;;;;;;28.18;58.30;98834.85;1729045;83;20972;-75
2021/07/29 08:05:18;;;;;;;15.80;5.08;;;;;;;28.26;57.03;98834.20;1723260;83;21003;-75
2021/07/29 08:07:45;;;;;;;17.55;5.15;;;;;;;28.35;55.89;98836.31;1705855;83;21095;-75
2021/07/29 08:10:13;;;;;;;12.37;5.05;;;;;;;28.46;54.70;98837.38;1700869;83;21008;-75
2021/07/29 08:12:39;;;;;;;15.00;5.50;;;;;;;28.62;54.55;98837.86;1713387;83;21491;-74
2021/07/29 08:15:09;;;;;;;11.85;5.20;;;;;;;28.84;54.67;98832.47;1705641;82;21520;-75
2021/07/29 08:17:36;;;;;;;18.77;5.42;;;;;;;29.19;54.01;98835.26;1716789;83;20993;-75
2021/07/29 08:20:03;;;;;;;15.63;5.03;;;;;;;29.53;51.55;98840.86;1719423;82;21118;-75
2021/07/29 08:22:30;;;;;;;14.23;5.85;;;;;;;29.76;50.85;98828.27;1705149;83;20928;-75
2021/07/29 08:24:57;;;;;;;16.10;5.47;;;;;;;29.97;50.50;98833.73;1713701;83;21519;-75
2021/07/29 08:27:23;;;;;;;13.53;5.87;;;;;;;30.13;50.58;98835.53;1700994;84;21012;-75
2021/07/29 08:29:49;;;;;;;13.45;5.53;;;;;;;30.27;50.00;98841.25;1700936;83;21067;-74
2021/07/29 08:32:16;;;;;;;12.23;5.28;;;;;;;30.46;50.84;98840.05;1701194;83;23381;-75
2021/07/29 08:34:42;;;;;;;11.93;4.78;;;;;;;30.68;51.76;98837.13;1701045;84;22313;-75
2021/07/29 08:37:10;;;;;;;16.57;4.95;;;;;;;30.92;51.38;98831.66;1701295;84;20944;-76
2021/07/29 08:39:37;;;;;;;9.55;4.50;;;;;;;31.12;48.59;98829.14;1682111;83;20909;-85
2021/07/29 08:42:05;;;;;;;13.60;5.08;;;;;;;31.15;46.89;98816.27;1730476;82;21483;-76
2021/07/29 08:44:31;;;;;;;9.75;4.53;;;;;;;31.16;46.46;98820.67;1730073;83;21141;-74
2021/07/29 08:46:58;;;;;;;8.58;4.33;;;;;;;31.15;46.90;98818.31;1651779;83;21337;-74
2021/07/29 08:49:26;;;;;;;11.88;4.60;;;;;;;31.23;45.94;98825.84;1730328;83;20976;-75
2021/07/29 08:51:53;;;;;;;10.48;4.33;;;;;;;31.37;44.54;98816.06;1730467;82;21272;-75
2021/07/29 08:54:19;;;;;;;10.70;4.00;;;;;;;31.57;43.79;98810.52;1730112;82;21016;-74
2021/07/29 08:56:46;;;;;;;9.05;4.80;;;;;;;31.69;42.71;98813.83;1730303;83;21116;-76
2021/07/29 08:59:12;;;;;;;12.35;4.72;;;;;;;31.81;42.53;98812.82;1729940;83;21027;-81
2021/07/29 09:01:46;;;;;;;13.38;5.62;;;;;;;31.95;42.30;98801.42;1730274;82;20952;-71
2021/07/29 09:04:15;;;;;;;8.93;4.25;;;;;;;32.09;42.92;98802.16;1707783;83;21043;-75
2021/07/29 09:06:57;;;;;;;11.78;4.50;;;;;;;32.16;41.64;98809.70;1729693;83;21020;-75
2021/07/29 09:09:42;;;;;;;13.25;4.58;;;;;;;32.16;40.19;98807.48;1726676;82;21152;-75
2021/07/29 09:12:24;;;;;;;12.82;4.28;;;;;;;32.01;40.81;98804.55;1730046;82;21437;-75
2021/07/29 09:14:52;;;;;;;13.45;5.28;;;;;;;32.02;41.93;98806.76;1730582;82;20901;-74
2021/07/29 09:17:19;;;;;;;12.75;4.97;;;;;;;32.08;41.36;98808.47;1729899;83;21520;-74
2021/07/29 09:19:48;;;;;;;16.17;4.85;;;;;;;32.06;41.04;98804.53;1730303;82;20961;-75
2021/07/29 09:22:28;;;;;;;11.33;4.25;;;;;;;31.97;42.29;98808.83;1730174;83;21172;-73
2021/07/29 09:25:12;;;;;;;12.43;4.35;;;;;;;31.93;42.78;98807.58;1730445;83;21024;-74
2021/07/29 09:27:43;;;;;;;12.20;4.22;;;;;;;31.98;40.84;98803.30;1730523;82;21068;-74
2021/07/29 09:30:27;;;;;;;10.72;4.28;;;;;;;31.95;41.95;98807.89;1730227;82;21484;-74
2021/07/29 09:33:07;;;;;;;7.50;4.17;;;;;;;32.05;41.22;98802.33;1730342;83;21111;-74
2021/07/29 09:35:50;;;;;;;9.55;4.08;;;;;;;32.11;41.29;98804.67;1730736;83;21104;-74
2021/07/29 09:38:26;;;;;;;13.58;4.60;;;;;;;32.31;41.62;98806.97;1730446;82;21592;-74
2021/07/29 09:41:02;;;;;;;7.62;4.08;;;;;;;32.45;41.58;98806.23;1730700;82;20968;-74
2021/07/29 09:43:34;;;;;;;14.68;4.90;;;;;;;32.51;42.05;98793.58;1729227;83;21048;-74
2021/07/29 09:46:17;;;;;;;10.78;5.00;;;;;;;32.60;41.23;98789.89;1730660;83;20925;-74
2021/07/29 09:48:44;;;;;;;10.38;4.70;;;;;;;32.55;43.50;98797.66;1730385;83;21711;-74
2021/07/29 09:51:12;;;;;;;11.10;4.40;;;;;;;32.63;40.46;98790.34;1730185;83;20990;-75
2021/07/29 09:53:38;;;;;;;13.55;4.15;;;;;;;32.65;40.64;98790.65;1730170;82;21053;-74
2021/07/29 09:56:09;;;;;;;14.43;4.85;;;;;;;32.69;40.87;98781.30;1731608;83;20921;-73
2021/07/29 09:58:36;;;;;;;6.95;3.95;;;;;;;32.71;40.94;98781.61;1730478;83;20940;-73
2021/07/29 10:01:03;;;;;;;13.13;4.80;;;;;;;32.64;41.55;98782.76;1730253;83;21167;-73
2021/07/29 10:03:30;;;;;;;10.05;4.47;;;;;;;32.68;42.49;98776.89;1728192;82;20956;-73
2021/07/29 10:06:04;;;;;;;12.70;4.12;;;;;;;32.84;41.60;98774.28;1714658;83;20996;-70
2021/07/29 10:08:40;;;;;;;6.30;4.35;;;;;;;32.98;42.67;98770.66;1700960;84;21031;-72
2021/07/29 10:11:13;;;;;;;7.58;4.60;;;;;;;33.15;41.45;98762.61;1701645;84;20989;-74
2021/07/29 10:13:42;;;;;;;11.70;4.50;;;;;;;33.21;41.34;98766.19;1682618;84;20941;-74
2021/07/29 10:16:09;;;;;;;9.73;4.65;;;;;;;33.34;41.11;98761.83;1701274;84;21024;-74
2021/07/29 10:18:56;;;;;;;8.70;4.42;;;;;;;33.52;39.83;98763.66;1700951;84;21008;-73
2021/07/29 10:21:29;;;;;;;11.20;4.37;;;;;;;33.56;39.30;98765.67;1701558;84;20983;-74
2021/07/29 10:23:59;;;;;;;16.20;4.58;;;;;;;33.51;39.95;98759.25;1701086;83;21561;-73
2021/07/29 10:26:27;;;;;;;10.20;4.12;;;;;;;33.57;41.39;98753.02;1701464;84;21082;-74
2021/07/29 10:29:20;;;;;;;13.62;4.28;;;;;;;33.71;39.87;98758.55;1701138;84;21012;-75
2021/07/29 10:31:57;;;;;;;11.88;4.62;;;;;;;33.67;39.12;98756.55;1701323;84;21491;-72
2021/07/29 10:34:32;;;;;;;11.25;4.25;;;;;;;33.57;40.04;98753.66;1701128;84;21547;-73
2021/07/29 10:36:59;;;;;;;13.18;4.87;;;;;;;33.74;39.00;98751.87;1701488;83;20884;-74
2021/07/29 10:39:26;;;;;;;7.30;4.37;;;;;;;33.87;38.93;98752.38;1723066;83;21125;-73
2021/07/29 10:42:00;;;;;;;10.03;4.42;;;;;;;33.90;38.03;98753.45;1730302;83;21253;-75
2021/07/29 10:44:38;;;;;;;9.43;4.10;;;;;;;33.76;39.07;98756.44;1730546;82;20971;-73
2021/07/29 10:47:07;;;;;;;11.73;4.00;;;;;;;33.88;38.96;98761.70;1730506;82;21013;-74
2021/07/29 10:49:54;;;;;;;8.85;3.65;;;;;;;34.09;38.57;98756.97;1730529;81;36960;-74
2021/07/29 10:52:21;;;;;;;9.78;4.25;;;;;;;34.36;38.28;98756.47;1730194;83;21094;-74
2021/07/29 10:54:47;;;;;;;9.78;3.95;;;;;;;34.55;38.71;98760.63;1730219;83;20950;-74
2021/07/29 10:57:14;;;;;;;11.80;4.00;;;;;;;34.64;39.37;98756.20;1723466;82;20991;-74
2021/07/29 10:59:41;;;;;;;10.10;4.33;;;;;;;34.70;38.38;98764.16;1719271;83;21001;-74
2021/07/29 11:04:59;;;;;;;9.08;4.28;;;;;;;34.65;36.79;98760.63;1727112;83;21894;-74
2021/07/29 11:07:26;;;;;;;9.55;4.17;;;;;;;34.75;37.77;98762.02;1730609;82;20929;-74
2021/07/29 11:10:08;;;;;;;7.50;3.80;;;;;;;34.76;37.91;98756.45;1730174;83;21036;-74
2021/07/29 11:12:35;;;;;;;10.45;4.22;;;;;;;34.86;39.76;98752.06;1730424;83;20992;-73
2021/07/29 11:15:07;;;;;;;9.40;3.95;;;;;;;34.98;38.44;98742.36;1730355;83;21464;-73
2021/07/29 11:17:34;;;;;;;8.23;4.28;;;;;;;34.98;37.60;98740.92;1730687;82;21098;-74
2021/07/29 11:20:00;;;;;;;9.65;3.67;;;;;;;35.05;37.90;98741.27;1730150;83;20849;-74
2021/07/29 11:22:26;;;;;;;13.70;3.87;;;;;;;35.17;37.70;98729.34;1730275;82;20952;-74
2021/07/29 11:24:54;;;;;;;12.35;4.10;;;;;;;35.11;37.26;98740.55;1709690;83;20965;-74
2021/07/29 11:27:33;;;;;;;10.58;4.08;;;;;;;35.08;39.13;98733.78;1730239;83;20950;-74
2021/07/29 11:30:02;;;;;;;12.80;3.70;;;;;;;35.19;38.63;98731.05;1730274;83;21187;-75
2021/07/29 11:32:38;;;;;;;11.08;4.55;;;;;;;35.40;35.58;98726.06;1730242;83;20940;-73
2021/07/29 11:35:07;;;;;;;10.50;4.12;;;;;;;35.43;35.62;98729.33;1730423;82;20913;-75
2021/07/29 11:37:42;;;;;;;11.28;3.75;;;;;;;35.45;36.02;98723.12;1730410;82;20945;-75
2021/07/29 11:40:23;;;;;;;8.68;3.85;;;;;;;35.46;35.73;98711.84;1730347;83;20994;-74